sensor_id;sensor_type;location;lat;lon;timestamp;pressure;altitude;pressure_sealevel;temperature;humidity
51259;BME280;37327;54.254;18.504;2022-10-13T00:01:07;101919.54;;;8.95;100.00
51259;BME280;37327;54.254;18.504;2022-10-13T00:04:40;101919.11;;;8.99;100.00
51259;BME280;37327;54.254;18.504;2022-10-13T00:07:47;101917.97;;;9.02;100.00
51259;BME280;37327;54.254;18.504;2022-10-13T00:10:53;101908.78;;;9.04;100.00
51259;BME280;37327;54.254;18.504;2022-10-13T00:14:02;101916.57;;;9.07;100.00
51259;BME280;37327;54.254;18.504;2022-10-13T00:17:09;101912.91;;;9.08;100.00
51259;BME280;37327;54.254;18.504;2022-10-13T00:20:18;101913.62;;;9.11;100.00
51259;BME280;37327;54.254;18.504;2022-10-13T00:23:52;101910.63;;;9.14;100.00
51259;BME280;37327;54.254;18.504;2022-10-13T00:26:59;101911.50;;;9.14;100.00
51259;BME280;37327;54.254;18.504;2022-10-13T00:30:06;101912.34;;;9.15;100.00
51259;BME280;37327;54.254;18.504;2022-10-13T00:33:14;101912.34;;;9.15;100.00
51259;BME280;37327;54.254;18.504;2022-10-13T00:36:22;101911.50;;;9.14;100.00
51259;BME280;37327;54.254;18.504;2022-10-13T00:39:30;101910.79;;;9.12;100.00
51259;BME280;37327;54.254;18.504;2022-10-13T00:43:02;101917.88;;;9.13;100.00
51259;BME280;37327;54.254;18.504;2022-10-13T00:46:09;101914.33;;;9.13;100.00
51259;BME280;37327;54.254;18.504;2022-10-13T00:49:16;101920.70;;;9.12;100.00
51259;BME280;37327;54.254;18.504;2022-10-13T00:52:24;101910.92;;;9.11;100.00
51259;BME280;37327;54.254;18.504;2022-10-13T00:55:34;101911.77;;;9.11;100.00
51259;BME280;37327;54.254;18.504;2022-10-13T00:58:42;101901.56;;;9.15;100.00
51259;BME280;37327;54.254;18.504;2022-10-13T01:02:16;101901.56;;;9.15;100.00
51259;BME280;37327;54.254;18.504;2022-10-13T01:05:24;101896.89;;;9.17;100.00
51259;BME280;37327;54.254;18.504;2022-10-13T01:08:32;101888.94;;;9.15;100.00
51259;BME280;37327;54.254;18.504;2022-10-13T01:15:07;101894.19;;;9.17;100.00
51259;BME280;37327;54.254;18.504;2022-10-13T01:18:47;101891.50;;;9.17;100.00
51259;BME280;37327;54.254;18.504;2022-10-13T01:25:32;101887.09;;;9.16;100.00
51259;BME280;37327;54.254;18.504;2022-10-13T01:32:29;101885.40;;;9.15;100.00
51259;BME280;37327;54.254;18.504;2022-10-13T01:39:33;101879.57;;;9.09;100.00
51259;BME280;37327;54.254;18.504;2022-10-13T01:49:43;101883.14;;;9.10;100.00
51259;BME280;37327;54.254;18.504;2022-10-13T01:52:51;101881.29;;;9.11;100.00
51259;BME280;37327;54.254;18.504;2022-10-13T01:55:59;101874.88;;;9.12;100.00
51259;BME280;37327;54.254;18.504;2022-10-13T01:59:10;101870.38;;;9.12;100.00
51259;BME280;37327;54.254;18.504;2022-10-13T02:02:28;101864.83;;;9.14;100.00
51259;BME280;37327;54.254;18.504;2022-10-13T02:06:54;101860.31;;;9.14;100.00
51259;BME280;37327;54.254;18.504;2022-10-13T02:09:32;101864.69;;;9.15;100.00
51259;BME280;37327;54.254;18.504;2022-10-13T02:12:50;101855.77;;;9.15;100.00
51259;BME280;37327;54.254;18.504;2022-10-13T02:16:23;101855.90;;;9.13;100.00
51259;BME280;37327;54.254;18.504;2022-10-13T02:19:36;101858.72;;;9.12;100.00
51259;BME280;37327;54.254;18.504;2022-10-13T02:22:47;101856.04;;;9.12;100.00
51259;BME280;37327;54.254;18.504;2022-10-13T02:25:58;101847.95;;;9.12;100.00
51259;BME280;37327;54.254;18.504;2022-10-13T02:29:12;101848.96;;;9.11;100.00
51259;BME280;37327;54.254;18.504;2022-10-13T02:32:45;101836.46;;;9.09;100.00
51259;BME280;37327;54.254;18.504;2022-10-13T02:35:51;101845.42;;;9.10;100.00
51259;BME280;37327;54.254;18.504;2022-10-13T02:38:59;101837.47;;;9.08;100.00
51259;BME280;37327;54.254;18.504;2022-10-13T02:42:06;101839.45;;;9.06;100.00
51259;BME280;37327;54.254;18.504;2022-10-13T02:45:13;101834.91;;;9.07;100.00
51259;BME280;37327;54.254;18.504;2022-10-13T02:48:20;101826.83;;;9.07;100.00
51259;BME280;37327;54.254;18.504;2022-10-13T02:51:54;101830.49;;;9.06;100.00
51259;BME280;37327;54.254;18.504;2022-10-13T02:55:01;101818.88;;;9.05;100.00
51259;BME280;37327;54.254;18.504;2022-10-13T02:58:08;101822.41;;;9.06;99.66
51259;BME280;37327;54.254;18.504;2022-10-13T03:01:15;101824.97;;;9.07;99.67
51259;BME280;37327;54.254;18.504;2022-10-13T03:04:21;101830.36;;;9.07;100.00
51259;BME280;37327;54.254;18.504;2022-10-13T03:07:28;101825.82;;;9.08;99.93
51259;BME280;37327;54.254;18.504;2022-10-13T03:10:35;101824.97;;;9.07;99.78
51259;BME280;37327;54.254;18.504;2022-10-13T03:14:07;101826.96;;;9.05;99.01
51259;BME280;37327;54.254;18.504;2022-10-13T03:17:14;101823.28;;;9.06;98.44
51259;BME280;37327;54.254;18.504;2022-10-13T03:20:21;101822.28;;;9.07;97.52
51259;BME280;37327;54.254;18.504;2022-10-13T03:23:28;101822.98;;;9.09;97.38
51259;BME280;37327;54.254;18.504;2022-10-13T03:26:35;101821.17;;;9.10;97.74
51259;BME280;37327;54.254;18.504;2022-10-13T03:29:41;101825.43;;;9.13;97.39
51259;BME280;37327;54.254;18.504;2022-10-13T03:32:48;101819.32;;;9.11;97.54
51259;BME280;37327;54.254;18.504;2022-10-13T03:36:20;101811.10;;;9.12;96.91
51259;BME280;37327;54.254;18.504;2022-10-13T03:39:27;101814.64;;;9.13;97.61
51259;BME280;37327;54.254;18.504;2022-10-13T03:42:37;101811.95;;;9.13;97.04
51259;BME280;37327;54.254;18.504;2022-10-13T03:49:02;101809.25;;;9.13;97.02
51259;BME280;37327;54.254;18.504;2022-10-13T03:52:34;101815.49;;;9.13;96.98
51259;BME280;37327;54.254;18.504;2022-10-13T03:55:50;101811.10;;;9.12;97.23
51259;BME280;37327;54.254;18.504;2022-10-13T03:58:59;101810.23;;;9.12;96.79
51259;BME280;37327;54.254;18.504;2022-10-13T04:02:06;101808.41;;;9.12;97.03
51259;BME280;37327;54.254;18.504;2022-10-13T04:05:13;101809.25;;;9.13;96.95
51259;BME280;37327;54.254;18.504;2022-10-13T04:08:47;101802.86;;;9.14;96.66
51259;BME280;37327;54.254;18.504;2022-10-13T04:11:54;101802.86;;;9.14;96.24
51259;BME280;37327;54.254;18.504;2022-10-13T04:15:01;101803.87;;;9.13;95.77
51259;BME280;37327;54.254;18.504;2022-10-13T04:18:10;101802.86;;;9.14;95.85
51259;BME280;37327;54.254;18.504;2022-10-13T04:21:17;101792.08;;;9.14;95.68
51259;BME280;37327;54.254;18.504;2022-10-13T04:24:24;101789.55;;;9.12;95.80
51259;BME280;37327;54.254;18.504;2022-10-13T04:27:57;101796.63;;;9.13;96.12
51259;BME280;37327;54.254;18.504;2022-10-13T04:31:04;101793.93;;;9.13;95.66
51259;BME280;37327;54.254;18.504;2022-10-13T04:34:11;101788.68;;;9.12;95.83
51259;BME280;37327;54.254;18.504;2022-10-13T04:37:17;101786.15;;;9.10;95.76
51259;BME280;37327;54.254;18.504;2022-10-13T04:40:25;101781.60;;;9.11;95.85
51259;BME280;37327;54.254;18.504;2022-10-13T04:43:33;101779.05;;;9.09;95.57
51259;BME280;37327;54.254;18.504;2022-10-13T04:47:07;101772.95;;;9.07;95.91
51259;BME280;37327;54.254;18.504;2022-10-13T04:50:14;101778.47;;;9.05;95.98
51259;BME280;37327;54.254;18.504;2022-10-13T04:53:21;101776.21;;;9.01;96.15
51259;BME280;37327;54.254;18.504;2022-10-13T04:56:28;101775.63;;;8.97;96.05
51259;BME280;37327;54.254;18.504;2022-10-13T04:59:35;101786.97;;;8.91;96.60
51259;BME280;37327;54.254;18.504;2022-10-13T05:02:42;101781.14;;;8.86;96.76
51259;BME280;37327;54.254;18.504;2022-10-13T05:06:19;101778.03;;;8.81;96.69
51259;BME280;37327;54.254;18.504;2022-10-13T05:09:27;101789.50;;;8.73;96.57
51259;BME280;37327;54.254;18.504;2022-10-13T05:12:34;101783.80;;;8.66;96.70
51259;BME280;37327;54.254;18.504;2022-10-13T05:15:41;101780.68;;;8.61;96.71
51259;BME280;37327;54.254;18.504;2022-10-13T05:18:49;101785.62;;;8.56;96.50
51259;BME280;37327;54.254;18.504;2022-10-13T05:21:56;101781.50;;;8.52;96.52
51259;BME280;37327;54.254;18.504;2022-10-13T05:25:28;101783.74;;;8.47;96.34
51259;BME280;37327;54.254;18.504;2022-10-13T05:28:35;101766.17;;;8.43;96.24
51259;BME280;37327;54.254;18.504;2022-10-13T05:31:42;101772.65;;;8.40;96.17
51259;BME280;37327;54.254;18.504;2022-10-13T05:34:49;101769.38;;;8.37;96.25
51259;BME280;37327;54.254;18.504;2022-10-13T05:37:56;101770.64;;;8.33;96.14
51259;BME280;37327;54.254;18.504;2022-10-13T05:41:05;101778.97;;;8.29;96.13
51259;BME280;37327;54.254;18.504;2022-10-13T05:44:37;101770.48;;;8.24;96.04
51259;BME280;37327;54.254;18.504;2022-10-13T05:47:44;101771.73;;;8.20;96.08
51259;BME280;37327;54.254;18.504;2022-10-13T05:50:51;101765.91;;;8.15;96.08
51259;BME280;37327;54.254;18.504;2022-10-13T05:57:23;101760.35;;;8.07;96.38
51259;BME280;37327;54.254;18.504;2022-10-13T06:00:56;101747.45;;;8.01;96.61
51259;BME280;37327;54.254;18.504;2022-10-13T06:04:08;101750.13;;;8.01;96.97
51259;BME280;37327;54.254;18.504;2022-10-13T06:07:17;101750.98;;;8.01;97.16
51259;BME280;37327;54.254;18.504;2022-10-13T06:10:24;101754.38;;;8.03;97.32
51259;BME280;37327;54.254;18.504;2022-10-13T06:13:31;101756.79;;;8.06;97.39
51259;BME280;37327;54.254;18.504;2022-10-13T06:16:39;101758.80;;;8.14;97.82
51259;BME280;37327;54.254;18.504;2022-10-13T06:20:12;101763.83;;;8.28;97.80
51259;BME280;37327;54.254;18.504;2022-10-13T06:23:19;101762.99;;;8.38;97.72
51259;BME280;37327;54.254;18.504;2022-10-13T06:26:26;101766.76;;;8.46;97.59
51259;BME280;37327;54.254;18.504;2022-10-13T06:29:33;101759.97;;;8.52;97.22
51259;BME280;37327;54.254;18.504;2022-10-13T06:32:41;101758.70;;;8.56;96.85
51259;BME280;37327;54.254;18.504;2022-10-13T06:35:48;101754.74;;;8.60;96.40
51259;BME280;37327;54.254;18.504;2022-10-13T06:39:22;101744.68;;;8.62;96.06
51259;BME280;37327;54.254;18.504;2022-10-13T06:42:29;101733.91;;;8.62;95.82
51259;BME280;37327;54.254;18.504;2022-10-13T06:45:38;101728.27;;;8.65;95.59
51259;BME280;37327;54.254;18.504;2022-10-13T06:48:48;101727.97;;;8.68;95.60
51259;BME280;37327;54.254;18.504;2022-10-13T06:51:56;101724.30;;;8.69;95.31
51259;BME280;37327;54.254;18.504;2022-10-13T06:55:04;101720.60;;;8.70;95.07
51259;BME280;37327;54.254;18.504;2022-10-13T06:58:37;101728.41;;;8.74;94.88
51259;BME280;37327;54.254;18.504;2022-10-13T07:01:45;101732.52;;;8.78;95.01
51259;BME280;37327;54.254;18.504;2022-10-13T07:04:52;101733.95;;;8.82;94.86
51259;BME280;37327;54.254;18.504;2022-10-13T07:07:59;101731.96;;;8.84;94.32
51259;BME280;37327;54.254;18.504;2022-10-13T07:11:10;101721.90;;;8.86;94.13
51259;BME280;37327;54.254;18.504;2022-10-13T07:14:18;101709.98;;;8.88;94.11
51259;BME280;37327;54.254;18.504;2022-10-13T07:17:51;101722.03;;;8.94;93.61
51259;BME280;37327;54.254;18.504;2022-10-13T07:21:00;101719.77;;;8.99;93.55
51259;BME280;37327;54.254;18.504;2022-10-13T07:24:08;101713.24;;;9.02;93.17
51259;BME280;37327;54.254;18.504;2022-10-13T07:27:16;101711.70;;;9.09;93.35
51259;BME280;37327;54.254;18.504;2022-10-13T07:30:23;101706.02;;;9.22;93.66
51259;BME280;37327;54.254;18.504;2022-10-13T07:33:32;101706.39;;;9.46;93.91
51259;BME280;37327;54.254;18.504;2022-10-13T07:37:04;101699.45;;;9.91;92.85
51259;BME280;37327;54.254;18.504;2022-10-13T07:40:11;101701.91;;;10.12;91.48
51259;BME280;37327;54.254;18.504;2022-10-13T07:43:17;101688.51;;;10.20;90.38
51259;BME280;37327;54.254;18.504;2022-10-13T07:46:25;101685.64;;;10.32;89.17
51259;BME280;37327;54.254;18.504;2022-10-13T07:49:31;101692.12;;;10.39;87.96
51259;BME280;37327;54.254;18.504;2022-10-13T07:52:38;101677.63;;;10.40;87.53
51259;BME280;37327;54.254;18.504;2022-10-13T07:55:45;101670.22;;;10.42;86.95
51259;BME280;37327;54.254;18.504;2022-10-13T08:00:59;101667.31;;;10.53;86.59
51259;BME280;37327;54.254;18.504;2022-10-13T08:04:06;101666.40;;;10.62;86.70
51259;BME280;37327;54.254;18.504;2022-10-13T08:07:13;101669.54;;;10.76;86.30
51259;BME280;37327;54.254;18.504;2022-10-13T08:10:22;101660.52;;;10.85;85.51
51259;BME280;37327;54.254;18.504;2022-10-13T08:13:28;101655.03;;;10.95;84.99
51259;BME280;37327;54.254;18.504;2022-10-13T08:17:02;101660.03;;;11.08;85.22
51259;BME280;37327;54.254;18.504;2022-10-13T08:20:10;101657.74;;;11.21;84.79
51259;BME280;37327;54.254;18.504;2022-10-13T08:23:16;101653.31;;;11.38;84.69
51259;BME280;37327;54.254;18.504;2022-10-13T08:26:26;101651.03;;;11.51;83.46
51259;BME280;37327;54.254;18.504;2022-10-13T08:29:33;101644.33;;;11.63;83.22
51259;BME280;37327;54.254;18.504;2022-10-13T08:32:40;101645.27;;;11.80;83.07
51259;BME280;37327;54.254;18.504;2022-10-13T08:36:14;101643.84;;;11.94;82.00
51259;BME280;37327;54.254;18.504;2022-10-13T08:39:23;101635.27;;;12.07;81.11
51259;BME280;37327;54.254;18.504;2022-10-13T08:42:30;101635.81;;;12.19;81.10
51259;BME280;37327;54.254;18.504;2022-10-13T08:45:37;101639.53;;;12.26;79.33
51259;BME280;37327;54.254;18.504;2022-10-13T08:48:43;101637.04;;;12.33;78.34
51259;BME280;37327;54.254;18.504;2022-10-13T08:51:50;101635.52;;;12.38;78.16
51259;BME280;37327;54.254;18.504;2022-10-13T08:55:34;101639.75;;;12.49;77.51
51259;BME280;37327;54.254;18.504;2022-10-13T08:58:41;101638.77;;;12.58;76.65
51259;BME280;37327;54.254;18.504;2022-10-13T09:01:52;101647.73;;;12.67;75.95
51259;BME280;37327;54.254;18.504;2022-10-13T09:05:01;101647.93;;;12.74;75.48
51259;BME280;37327;54.254;18.504;2022-10-13T09:08:18;101638.80;;;12.83;76.14
51259;BME280;37327;54.254;18.504;2022-10-13T09:11:50;101638.79;;;12.91;74.20
51259;BME280;37327;54.254;18.504;2022-10-13T09:15:06;101643.16;;;13.00;73.22
51259;BME280;37327;54.254;18.504;2022-10-13T09:18:15;101636.89;;;13.08;74.40
51259;BME280;37327;54.254;18.504;2022-10-13T09:21:24;101637.07;;;13.23;74.66
51259;BME280;37327;54.254;18.504;2022-10-13T09:24:31;101635.40;;;13.30;73.11
51259;BME280;37327;54.254;18.504;2022-10-13T09:28:09;101620.80;;;13.31;70.67
51259;BME280;37327;54.254;18.504;2022-10-13T09:31:23;101623.85;;;13.36;69.54
51259;BME280;37327;54.254;18.504;2022-10-13T09:34:31;101620.77;;;13.39;69.08
51259;BME280;37327;54.254;18.504;2022-10-13T09:37:38;101617.40;;;13.46;68.73
51259;BME280;37327;54.254;18.504;2022-10-13T09:44:29;101620.88;;;13.62;67.03
51259;BME280;37327;54.254;18.504;2022-10-13T09:47:37;101613.21;;;13.74;68.34
51259;BME280;37327;54.254;18.504;2022-10-13T09:50:49;101615.54;;;13.86;67.38
51259;BME280;37327;54.254;18.504;2022-10-13T09:53:56;101611.11;;;13.93;67.51
51259;BME280;37327;54.254;18.504;2022-10-13T09:57:13;101596.27;;;14.03;67.31
51259;BME280;37327;54.254;18.504;2022-10-13T10:00:48;101594.18;;;14.14;66.09
51259;BME280;37327;54.254;18.504;2022-10-13T10:03:56;101591.23;;;14.23;66.94
51259;BME280;37327;54.254;18.504;2022-10-13T10:07:10;101583.16;;;14.38;66.61
51259;BME280;37327;54.254;18.504;2022-10-13T10:24:32;101564.80;;;14.87;62.75
51259;BME280;37327;54.254;18.504;2022-10-13T10:27:44;101569.98;;;14.96;61.39
51259;BME280;37327;54.254;18.504;2022-10-13T10:45:03;101516.98;;;15.52;58.13
51259;BME280;37327;54.254;18.504;2022-10-13T10:48:22;101506.63;;;15.62;57.54
51259;BME280;37327;54.254;18.504;2022-10-13T10:51:32;101503.28;;;15.75;57.81
51259;BME280;37327;54.254;18.504;2022-10-13T10:54:48;101500.95;;;15.93;58.17
51259;BME280;37327;54.254;18.504;2022-10-13T11:05:00;101509.73;;;16.32;55.97
51259;BME280;37327;54.254;18.504;2022-10-13T11:08:24;101504.73;;;16.35;55.98
51259;BME280;37327;54.254;18.504;2022-10-13T11:11:48;101503.25;;;16.33;55.18
51259;BME280;37327;54.254;18.504;2022-10-13T11:28:43;101492.55;;;16.10;54.99
51259;BME280;37327;54.254;18.504;2022-10-13T11:31:53;101490.15;;;16.00;55.14
51259;BME280;37327;54.254;18.504;2022-10-13T11:38:49;101488.30;;;15.86;54.43
51259;BME280;37327;54.254;18.504;2022-10-13T11:55:54;101459.52;;;15.62;54.92
51259;BME280;37327;54.254;18.504;2022-10-13T11:59:27;101453.25;;;15.61;55.02
51259;BME280;37327;54.254;18.504;2022-10-13T12:02:36;101448.58;;;15.55;54.93
51259;BME280;37327;54.254;18.504;2022-10-13T12:05:48;101457.51;;;15.49;55.10
51259;BME280;37327;54.254;18.504;2022-10-13T12:08:55;101455.15;;;15.46;55.05
51259;BME280;37327;54.254;18.504;2022-10-13T12:12:11;101450.09;;;15.43;55.23
51259;BME280;37327;54.254;18.504;2022-10-13T12:15:42;101448.02;;;15.45;55.47
51259;BME280;37327;54.254;18.504;2022-10-13T12:18:49;101447.64;;;15.48;55.61
51259;BME280;37327;54.254;18.504;2022-10-13T12:22:00;101448.02;;;15.45;54.83
51259;BME280;37327;54.254;18.504;2022-10-13T12:25:15;101439.60;;;15.39;55.45
51259;BME280;37327;54.254;18.504;2022-10-13T12:28:25;101440.16;;;15.35;55.31
51259;BME280;37327;54.254;18.504;2022-10-13T12:31:57;101440.55;;;15.32;54.64
51259;BME280;37327;54.254;18.504;2022-10-13T12:38:23;101423.70;;;15.22;55.09
51259;BME280;37327;54.254;18.504;2022-10-13T12:41:36;101428.48;;;15.19;55.16
51259;BME280;37327;54.254;18.504;2022-10-13T12:44:44;101428.48;;;15.19;55.32
51259;BME280;37327;54.254;18.504;2022-10-13T12:51:36;101419.46;;;15.19;55.22
51259;BME280;37327;54.254;18.504;2022-10-13T12:54:53;101425.94;;;15.18;55.26
51259;BME280;37327;54.254;18.504;2022-10-13T12:58:01;101412.53;;;15.16;55.56
51259;BME280;37327;54.254;18.504;2022-10-13T13:01:35;101422.58;;;15.16;55.97
51259;BME280;37327;54.254;18.504;2022-10-13T13:04:42;101416.55;;;15.20;57.12
51259;BME280;37327;54.254;18.504;2022-10-13T13:07:51;101409.23;;;15.21;56.19
51259;BME280;37327;54.254;18.504;2022-10-13T13:11:06;101406.07;;;15.17;55.74
51259;BME280;37327;54.254;18.504;2022-10-13T13:21:16;101399.23;;;15.07;57.06
51259;BME280;37327;54.254;18.504;2022-10-13T13:24:23;101387.52;;;15.06;56.44
51259;BME280;37327;54.254;18.504;2022-10-13T13:27:36;101388.53;;;15.05;56.29
51259;BME280;37327;54.254;18.504;2022-10-13T13:31:14;101397.09;;;15.02;56.27
51259;BME280;37327;54.254;18.504;2022-10-13T13:34:21;101392.84;;;14.99;55.95
51259;BME280;37327;54.254;18.504;2022-10-13T13:37:34;101384.05;;;14.97;56.39
51259;BME280;37327;54.254;18.504;2022-10-13T13:40:42;101385.45;;;14.93;56.62
51259;BME280;37327;54.254;18.504;2022-10-13T13:43:49;101386.68;;;14.91;57.34
51259;BME280;37327;54.254;18.504;2022-10-13T13:46:55;101380.59;;;14.89;57.11
51259;BME280;37327;54.254;18.504;2022-10-13T13:50:33;101377.77;;;14.82;56.53
51259;BME280;37327;54.254;18.504;2022-10-13T13:53:40;101361.86;;;14.79;56.53
51259;BME280;37327;54.254;18.504;2022-10-13T13:56:47;101369.36;;;14.77;57.13
51259;BME280;37327;54.254;18.504;2022-10-13T13:59:53;101370.77;;;14.73;57.25
51259;BME280;37327;54.254;18.504;2022-10-13T14:03:00;101368.81;;;14.67;57.16
51259;BME280;37327;54.254;18.504;2022-10-13T14:06:08;101368.34;;;14.63;57.85
51259;BME280;37327;54.254;18.504;2022-10-13T14:09:44;101371.95;;;14.55;57.59
51259;BME280;37327;54.254;18.504;2022-10-13T14:12:51;101367.99;;;14.43;57.54
51259;BME280;37327;54.254;18.504;2022-10-13T14:15:59;101364.70;;;14.33;57.77
51259;BME280;37327;54.254;18.504;2022-10-13T14:19:07;101361.07;;;14.26;58.44
51259;BME280;37327;54.254;18.504;2022-10-13T14:22:15;101363.10;;;14.23;58.54
51259;BME280;37327;54.254;18.504;2022-10-13T14:25:21;101362.18;;;14.16;58.52
51259;BME280;37327;54.254;18.504;2022-10-13T14:28:54;101355.95;;;14.08;59.34
51259;BME280;37327;54.254;18.504;2022-10-13T14:32:03;101350.61;;;13.99;59.95
51259;BME280;37327;54.254;18.504;2022-10-13T14:35:10;101355.80;;;13.86;60.51
51259;BME280;37327;54.254;18.504;2022-10-13T14:38:17;101350.28;;;13.79;61.32
51259;BME280;37327;54.254;18.504;2022-10-13T14:41:24;101352.20;;;13.71;61.31
51259;BME280;37327;54.254;18.504;2022-10-13T14:44:31;101348.37;;;13.65;61.43
51259;BME280;37327;54.254;18.504;2022-10-13T14:48:05;101339.44;;;13.56;61.14
51259;BME280;37327;54.254;18.504;2022-10-13T14:51:11;101348.13;;;13.52;61.72
51259;BME280;37327;54.254;18.504;2022-10-13T14:54:19;101352.58;;;13.45;62.29
51259;BME280;37327;54.254;18.504;2022-10-13T14:57:25;101344.13;;;13.39;62.72
51259;BME280;37327;54.254;18.504;2022-10-13T15:00:32;101343.67;;;13.36;62.95
51259;BME280;37327;54.254;18.504;2022-10-13T15:03:39;101345.88;;;13.32;62.76
51259;BME280;37327;54.254;18.504;2022-10-13T15:07:13;101341.98;;;13.27;63.22
51259;BME280;37327;54.254;18.504;2022-10-13T15:10:20;101348.42;;;13.26;63.30
51259;BME280;37327;54.254;18.504;2022-10-13T15:13:27;101338.13;;;13.21;62.76
51259;BME280;37327;54.254;18.504;2022-10-13T15:16:34;101333.77;;;13.12;63.48
51259;BME280;37327;54.254;18.504;2022-10-13T15:19:43;101330.44;;;13.01;63.83
51259;BME280;37327;54.254;18.504;2022-10-13T15:22:49;101342.49;;;12.99;64.31
51259;BME280;37327;54.254;18.504;2022-10-13T15:26:23;101336.25;;;12.90;65.25
51259;BME280;37327;54.254;18.504;2022-10-13T15:29:30;101339.50;;;12.86;66.07
51259;BME280;37327;54.254;18.504;2022-10-13T15:32:36;101337.99;;;12.83;65.24
51259;BME280;37327;54.254;18.504;2022-10-13T15:35:47;101338.52;;;12.78;65.98
51259;BME280;37327;54.254;18.504;2022-10-13T15:38:54;101338.88;;;12.75;66.85
51259;BME280;37327;54.254;18.504;2022-10-13T15:42:01;101330.92;;;12.74;66.74
51259;BME280;37327;54.254;18.504;2022-10-13T15:45:34;101335.84;;;12.70;67.25
51259;BME280;37327;54.254;18.504;2022-10-13T15:48:41;101329.59;;;12.70;67.17
51259;BME280;37327;54.254;18.504;2022-10-13T15:51:48;101333.30;;;12.69;67.47
51259;BME280;37327;54.254;18.504;2022-10-13T15:54:55;101329.26;;;12.64;67.29
51259;BME280;37327;54.254;18.504;2022-10-13T15:58:02;101331.80;;;12.66;67.39
51259;BME280;37327;54.254;18.504;2022-10-13T16:01:11;101344.50;;;12.66;67.28
51259;BME280;37327;54.254;18.504;2022-10-13T16:04:44;101339.25;;;12.64;67.23
51259;BME280;37327;54.254;18.504;2022-10-13T16:07:50;101339.42;;;12.62;67.79
51259;BME280;37327;54.254;18.504;2022-10-13T16:10:58;101338.76;;;12.60;68.13
51259;BME280;37327;54.254;18.504;2022-10-13T16:14:05;101338.09;;;12.58;67.92
51259;BME280;37327;54.254;18.504;2022-10-13T16:17:11;101340.13;;;12.56;68.12
51259;BME280;37327;54.254;18.504;2022-10-13T16:20:18;101340.46;;;12.53;68.20
51259;BME280;37327;54.254;18.504;2022-10-13T16:23:25;101342.34;;;12.53;68.35
51259;BME280;37327;54.254;18.504;2022-10-13T16:27:00;101338.29;;;12.49;68.54
51259;BME280;37327;54.254;18.504;2022-10-13T16:30:07;101338.45;;;12.47;68.05
51259;BME280;37327;54.254;18.504;2022-10-13T16:33:14;101342.20;;;12.46;68.37
51259;BME280;37327;54.254;18.504;2022-10-13T16:36:22;101337.12;;;12.43;68.55
51259;BME280;37327;54.254;18.504;2022-10-13T16:39:31;101334.74;;;12.40;68.57
51259;BME280;37327;54.254;18.504;2022-10-13T16:42:37;101338.66;;;12.37;68.94
51259;BME280;37327;54.254;18.504;2022-10-13T16:46:12;101332.73;;;12.34;68.88
51259;BME280;37327;54.254;18.504;2022-10-13T16:49:19;101327.68;;;12.31;68.99
51259;BME280;37327;54.254;18.504;2022-10-13T16:52:26;101331.75;;;12.27;69.22
51259;BME280;37327;54.254;18.504;2022-10-13T16:55:33;101334.80;;;12.23;69.95
51259;BME280;37327;54.254;18.504;2022-10-13T16:58:41;101329.71;;;12.20;69.79
51259;BME280;37327;54.254;18.504;2022-10-13T17:01:50;101335.65;;;12.16;70.03
51259;BME280;37327;54.254;18.504;2022-10-13T17:05:22;101328.05;;;12.11;70.34
51259;BME280;37327;54.254;18.504;2022-10-13T17:08:29;101337.55;;;12.07;70.89
51259;BME280;37327;54.254;18.504;2022-10-13T17:11:36;101327.38;;;12.01;71.02
51259;BME280;37327;54.254;18.504;2022-10-13T17:14:43;101338.89;;;11.95;71.28
51259;BME280;37327;54.254;18.504;2022-10-13T17:17:50;101338.58;;;11.90;71.76
51259;BME280;37327;54.254;18.504;2022-10-13T17:20:59;101332.62;;;11.86;71.87
51259;BME280;37327;54.254;18.504;2022-10-13T17:24:32;101331.27;;;11.82;72.19
51259;BME280;37327;54.254;18.504;2022-10-13T17:27:39;101332.27;;;11.81;72.49
51259;BME280;37327;54.254;18.504;2022-10-13T17:30:59;101330.09;;;11.76;73.08
51259;BME280;37327;54.254;18.504;2022-10-13T17:34:06;101323.84;;;11.76;73.11
51259;BME280;37327;54.254;18.504;2022-10-13T17:37:14;101322.30;;;11.73;73.26
51259;BME280;37327;54.254;18.504;2022-10-13T17:40:46;101318.09;;;11.71;73.57
51259;BME280;37327;54.254;18.504;2022-10-13T17:43:53;101312.84;;;11.69;73.50
51259;BME280;37327;54.254;18.504;2022-10-13T17:47:00;101316.57;;;11.68;73.91
51259;BME280;37327;54.254;18.504;2022-10-13T17:50:07;101303.21;;;11.66;74.10
51259;BME280;37327;54.254;18.504;2022-10-13T17:53:14;101306.44;;;11.62;73.97
51259;BME280;37327;54.254;18.504;2022-10-13T17:56:22;101305.25;;;11.56;73.77
51259;BME280;37327;54.254;18.504;2022-10-13T17:59:56;101309.63;;;11.49;73.67
51259;BME280;37327;54.254;18.504;2022-10-13T18:03:03;101307.24;;;11.46;73.89
51259;BME280;37327;54.254;18.504;2022-10-13T18:06:10;101305.89;;;11.42;73.85
51259;BME280;37327;54.254;18.504;2022-10-13T18:09:20;101309.11;;;11.37;74.00
51259;BME280;37327;54.254;18.504;2022-10-13T18:12:30;101312.49;;;11.31;74.15
51259;BME280;37327;54.254;18.504;2022-10-13T18:15:37;101300.48;;;11.25;74.36
51259;BME280;37327;54.254;18.504;2022-10-13T18:19:10;101302.99;;;11.19;74.61
51259;BME280;37327;54.254;18.504;2022-10-13T18:22:16;101298.93;;;11.15;75.05
51259;BME280;37327;54.254;18.504;2022-10-13T18:25:23;101300.43;;;11.09;75.26
51259;BME280;37327;54.254;18.504;2022-10-13T18:28:35;101292.84;;;11.04;75.36
51259;BME280;37327;54.254;18.504;2022-10-13T18:31:45;101301.62;;;10.98;75.48